Time;durP1;ratioP1;P1;durP2;ratioP2;P2;SDS_P1;SDS_P2;PMS_P1;PMS_P2;Temp;Humidity;BMP_temperature;BMP_pressure;BME280_temperature;BME280_humidity;BME280_pressure;Samples;Min_cycle;Max_cycle;Signal;HPM_P1;HPM_P2
2022/11/22 00:00:17;;;;;;;9.23;5.07;;;;;;;;;;5089472;28;20392;-77
2022/11/22 00:02:43;;;;;;;7.85;3.90;;;;;;;;;;5090531;28;20052;-77
2022/11/22 00:05:09;;;;;;;6.82;4.82;;;;;;;;;;5092109;28;20020;-77
2022/11/22 00:07:36;;;;;;;10.73;5.40;;;;;;;;;;5066686;28;20405;-77
2022/11/22 00:10:03;;;;;;;8.75;4.50;;;;;;;;;;5088493;28;20165;-77
2022/11/22 00:12:29;;;;;;;10.50;6.72;;;;;;;;;;5089880;28;20405;-77
2022/11/22 00:14:55;;;;;;;16.65;10.23;;;;;;;;;;5090544;28;20458;-77
2022/11/22 00:17:22;;;;;;;26.27;16.75;;;;;;;;;;5086924;28;20109;-77
2022/11/22 00:19:48;;;;;;;24.33;16.33;;;;;;;;;;5085191;28;20390;-77
2022/11/22 00:22:14;;;;;;;20.52;14.50;;;;;;;;;;5088447;28;20046;-77
2022/11/22 00:24:40;;;;;;;17.70;12.35;;;;;;;;;;5087171;28;21157;-78
2022/11/22 00:27:06;;;;;;;21.10;12.82;;;;;;;;;;5087376;28;20116;-77
2022/11/22 00:29:32;;;;;;;16.88;10.75;;;;;;;;;;5087972;28;20115;-77
2022/11/22 00:31:58;;;;;;;15.95;9.63;;;;;;;;;;5087196;28;20092;-77
2022/11/22 00:34:25;;;;;;;17.10;9.57;;;;;;;;;;5091027;28;20036;-77
2022/11/22 00:36:51;;;;;;;17.15;8.60;;;;;;;;;;5067543;28;20055;-77
2022/11/22 00:39:17;;;;;;;13.68;6.18;;;;;;;;;;5087660;28;20020;-77
2022/11/22 00:41:43;;;;;;;7.68;5.07;;;;;;;;;;5086600;28;20024;-77
2022/11/22 00:44:09;;;;;;;11.45;5.28;;;;;;;;;;5068837;28;20060;-76
2022/11/22 00:46:35;;;;;;;8.70;5.15;;;;;;;;;;5085969;28;20493;-77
2022/11/22 00:49:01;;;;;;;6.05;4.15;;;;;;;;;;5088914;28;20044;-77
2022/11/22 00:51:27;;;;;;;7.80;4.78;;;;;;;;;;5087516;28;20564;-77
2022/11/22 00:53:53;;;;;;;9.48;5.45;;;;;;;;;;5071470;28;20028;-77
2022/11/22 00:56:19;;;;;;;7.90;5.28;;;;;;;;;;5088707;28;20032;-77
2022/11/22 00:58:45;;;;;;;8.90;4.82;;;;;;;;;;5088931;28;20071;-77
2022/11/22 01:01:11;;;;;;;7.65;4.78;;;;;;;;;;5066262;28;20028;-77
2022/11/22 01:03:37;;;;;;;8.82;4.85;;;;;;;;;;5092539;28;20161;-78
2022/11/22 01:06:03;;;;;;;8.75;5.10;;;;;;;;;;5095277;28;20031;-77
2022/11/22 01:08:29;;;;;;;6.55;4.40;;;;;;;;;;5084977;28;20070;-77
2022/11/22 01:10:57;;;;;;;10.00;4.93;;;;;;;;;;5060401;28;20051;-76
2022/11/22 01:13:23;;;;;;;5.95;4.30;;;;;;;;;;5082606;28;20028;-78
2022/11/22 01:15:49;;;;;;;8.98;4.35;;;;;;;;;;5088569;28;20082;-77
2022/11/22 01:18:15;;;;;;;8.52;3.47;;;;;;;;;;5084435;28;20076;-77
2022/11/22 01:20:41;;;;;;;8.80;4.75;;;;;;;;;;5086184;28;20028;-77
2022/11/22 01:23:07;;;;;;;6.28;4.40;;;;;;;;;;5056340;28;20597;-77
2022/11/22 01:25:33;;;;;;;6.45;4.65;;;;;;;;;;5065822;28;20081;-77
2022/11/22 01:27:59;;;;;;;7.15;4.20;;;;;;;;;;5097042;28;20025;-77
2022/11/22 01:30:25;;;;;;;8.07;4.38;;;;;;;;;;5084999;28;20031;-77
2022/11/22 01:32:51;;;;;;;4.47;3.53;;;;;;;;;;5086915;28;20031;-77
2022/11/22 01:35:17;;;;;;;6.03;3.88;;;;;;;;;;5085027;28;20016;-78
2022/11/22 01:37:43;;;;;;;8.90;4.88;;;;;;;;;;5087386;28;20032;-77
2022/11/22 01:40:10;;;;;;;4.95;3.70;;;;;;;;;;5080336;28;20190;-77
2022/11/22 01:42:41;;;;;;;7.28;4.30;;;;;;;;;;5087853;28;20091;-77
2022/11/22 01:45:46;;;;;;;7.25;3.60;;;;;;;;;;5086091;28;20024;-77
2022/11/22 01:48:17;;;;;;;8.82;4.68;;;;;;;;;;4981753;28;20661;-77
2022/11/22 01:50:44;;;;;;;7.47;4.15;;;;;;;;;;4981507;28;20677;-76
2022/11/22 01:53:12;;;;;;;6.07;3.95;;;;;;;;;;5030402;28;20101;-76
2022/11/22 01:55:40;;;;;;;6.90;3.80;;;;;;;;;;5088473;28;20032;-77
2022/11/22 01:58:07;;;;;;;6.85;4.15;;;;;;;;;;5089754;28;20140;-77
2022/11/22 02:00:33;;;;;;;8.05;5.03;;;;;;;;;;5079041;28;20024;-77
2022/11/22 02:03:01;;;;;;;6.55;4.55;;;;;;;;;;5084985;28;20494;-77
2022/11/22 02:05:30;;;;;;;7.63;4.57;;;;;;;;;;5085661;28;20462;-77
2022/11/22 02:07:56;;;;;;;7.60;5.50;;;;;;;;;;5088568;28;20024;-77
2022/11/22 02:10:24;;;;;;;6.47;5.25;;;;;;;;;;5086049;28;20020;-77
2022/11/22 02:12:51;;;;;;;8.57;4.60;;;;;;;;;;5101611;28;20020;-77
2022/11/22 02:15:17;;;;;;;6.78;3.58;;;;;;;;;;5071243;28;20077;-77
2022/11/22 02:17:43;;;;;;;7.10;3.17;;;;;;;;;;5086996;28;20103;-77
2022/11/22 02:20:09;;;;;;;4.93;3.45;;;;;;;;;;5085932;28;20078;-77
2022/11/22 02:22:43;;;;;;;6.40;3.40;;;;;;;;;;5079537;28;20012;-77
2022/11/22 02:25:15;;;;;;;9.05;4.30;;;;;;;;;;5088555;28;20490;-77
2022/11/22 02:27:41;;;;;;;7.70;4.05;;;;;;;;;;5091341;28;20031;-77
2022/11/22 02:30:08;;;;;;;7.45;4.28;;;;;;;;;;5089595;28;20059;-76
2022/11/22 02:32:34;;;;;;;4.30;3.15;;;;;;;;;;5089994;28;20028;-76
2022/11/22 02:35:00;;;;;;;6.80;5.57;;;;;;;;;;5090607;28;20036;-77
2022/11/22 02:37:31;;;;;;;9.18;3.85;;;;;;;;;;5074074;28;20070;-78
2022/11/22 02:40:00;;;;;;;5.65;3.58;;;;;;;;;;5089900;28;20024;-77
2022/11/22 02:42:27;;;;;;;6.47;4.05;;;;;;;;;;5088100;28;20107;-77
2022/11/22 02:44:53;;;;;;;5.80;3.63;;;;;;;;;;5089560;28;20021;-77
2022/11/22 02:47:21;;;;;;;6.75;4.85;;;;;;;;;;5097170;28;20108;-76
2022/11/22 02:49:47;;;;;;;7.97;3.97;;;;;;;;;;5093863;28;20024;-76
2022/11/22 02:52:19;;;;;;;11.00;4.28;;;;;;;;;;5093966;28;20051;-76
2022/11/22 02:54:46;;;;;;;5.60;3.67;;;;;;;;;;5067612;28;20024;-77
2022/11/22 02:57:12;;;;;;;7.50;3.72;;;;;;;;;;5069590;28;20103;-77
2022/11/22 02:59:38;;;;;;;4.88;3.40;;;;;;;;;;5089984;28;20048;-77
2022/11/22 03:02:04;;;;;;;7.85;3.53;;;;;;;;;;5087124;28;20030;-77
2022/11/22 03:04:30;;;;;;;7.43;4.03;;;;;;;;;;5086091;28;20028;-76
2022/11/22 03:06:58;;;;;;;6.70;3.88;;;;;;;;;;5086935;28;20035;-77
2022/11/22 03:09:25;;;;;;;7.32;4.07;;;;;;;;;;5086829;28;20024;-77
2022/11/22 03:11:51;;;;;;;6.38;3.63;;;;;;;;;;5086785;28;20031;-77
2022/11/22 03:14:21;;;;;;;5.38;3.90;;;;;;;;;;5086756;28;20098;-77
2022/11/22 03:16:47;;;;;;;5.85;3.33;;;;;;;;;;5087852;28;20024;-76
2022/11/22 03:19:14;;;;;;;8.77;3.75;;;;;;;;;;5091028;28;20020;-77
2022/11/22 03:21:41;;;;;;;4.55;3.55;;;;;;;;;;5083715;28;20028;-77
2022/11/22 03:24:08;;;;;;;8.65;3.47;;;;;;;;;;5091280;28;20067;-77
2022/11/22 03:26:34;;;;;;;7.88;4.07;;;;;;;;;;5066522;28;20186;-76
2022/11/22 03:29:00;;;;;;;6.43;4.18;;;;;;;;;;5087290;28;20031;-77
2022/11/22 03:31:26;;;;;;;7.90;4.43;;;;;;;;;;5082650;28;20105;-77
2022/11/22 03:33:52;;;;;;;3.90;3.20;;;;;;;;;;5089563;28;20016;-77
2022/11/22 03:36:19;;;;;;;6.07;3.58;;;;;;;;;;5080842;28;20122;-77
2022/11/22 03:38:45;;;;;;;4.85;3.63;;;;;;;;;;5090093;28;20485;-77
2022/11/22 03:41:11;;;;;;;7.30;3.95;;;;;;;;;;5077603;28;20032;-77
2022/11/22 03:43:37;;;;;;;7.45;3.88;;;;;;;;;;5093208;28;20020;-77
2022/11/22 03:46:03;;;;;;;4.80;3.60;;;;;;;;;;5083944;28;20032;-77
2022/11/22 03:48:29;;;;;;;5.88;3.65;;;;;;;;;;5099130;28;20038;-77
2022/11/22 03:51:05;;;;;;;8.27;3.83;;;;;;;;;;5093411;28;20036;-77
2022/11/22 03:53:31;;;;;;;;;;;;;;;;;;5085235;28;20024;-77
2022/11/22 03:55:57;;;;;;;;;;;;;;;;;;5087748;28;20363;-77
2022/11/22 03:58:23;;;;;;;5.80;3.22;;;;;;;;;;5077818;28;20362;-77
2022/11/22 04:00:49;;;;;;;6.03;3.85;;;;;;;;;;5067202;28;20031;-77
2022/11/22 04:03:16;;;;;;;10.27;3.88;;;;;;;;;;5091890;28;20028;-77
2022/11/22 04:05:44;;;;;;;6.95;3.80;;;;;;;;;;5094447;28;20203;-77
2022/11/22 04:08:10;;;;;;;7.53;4.40;;;;;;;;;;5075788;28;20364;-77
2022/11/22 04:10:36;;;;;;;7.85;3.85;;;;;;;;;;5081947;28;20031;-76
2022/11/22 04:13:02;;;;;;;10.60;4.32;;;;;;;;;;5094670;28;20082;-77
2022/11/22 04:15:28;;;;;;;8.77;4.45;;;;;;;;;;5090462;28;20103;-77
2022/11/22 04:17:54;;;;;;;6.43;4.20;;;;;;;;;;5089110;28;20394;-76
2022/11/22 04:23:07;;;;;;;7.82;3.70;;;;;;;;;;5085891;28;20511;-75
2022/11/22 04:25:34;;;;;;;5.45;3.90;;;;;;;;;;5073057;28;20012;-76
2022/11/22 04:28:01;;;;;;;5.55;4.03;;;;;;;;;;5085539;28;20080;-77
2022/11/22 04:33:12;;;;;;;9.88;4.05;;;;;;;;;;5089079;28;20405;-77
2022/11/22 04:35:38;;;;;;;7.25;4.25;;;;;;;;;;5084544;28;20028;-77
2022/11/22 04:38:04;;;;;;;6.00;4.10;;;;;;;;;;5088014;28;20086;-77
2022/11/22 04:40:31;;;;;;;7.15;4.13;;;;;;;;;;5086191;28;20012;-77
2022/11/22 04:45:43;;;;;;;4.57;3.88;;;;;;;;;;5087486;28;20042;-77
2022/11/22 04:48:11;;;;;;;11.05;4.22;;;;;;;;;;5086194;28;20478;-77
2022/11/22 04:53:22;;;;;;;5.68;3.38;;;;;;;;;;5085742;28;20515;-76
2022/11/22 04:55:48;;;;;;;4.63;3.70;;;;;;;;;;5068262;28;20093;-77
2022/11/22 04:58:15;;;;;;;9.40;4.00;;;;;;;;;;5087944;28;20043;-78
2022/11/22 05:00:41;;;;;;;9.23;3.78;;;;;;;;;;5087077;28;20091;-77
2022/11/22 05:03:07;;;;;;;8.82;4.22;;;;;;;;;;5089442;28;20024;-76
2022/11/22 05:05:37;;;;;;;7.25;4.30;;;;;;;;;;5092229;28;21168;-76
2022/11/22 05:08:03;;;;;;;6.35;3.90;;;;;;;;;;5087579;28;20043;-77
2022/11/22 05:10:55;;;;;;;5.78;3.85;;;;;;;;;;5085546;28;20036;-78
2022/11/22 05:13:19;;;;;;;10.85;4.65;;;;;;;;;;5084483;28;20037;-77
2022/11/22 05:15:46;;;;;;;6.60;3.70;;;;;;;;;;5087085;28;20031;-78
2022/11/22 05:18:12;;;;;;;5.20;3.97;;;;;;;;;;5068369;28;20032;-77
2022/11/22 05:20:38;;;;;;;5.10;4.05;;;;;;;;;;5086260;28;20035;-75
2022/11/22 05:25:49;;;;;;;7.07;3.70;;;;;;;;;;5088230;28;20026;-77
2022/11/22 05:28:15;;;;;;;5.78;3.80;;;;;;;;;;5082010;28;20164;-77
2022/11/22 05:30:41;;;;;;;7.15;4.68;;;;;;;;;;5083827;28;20024;-77
2022/11/22 05:33:08;;;;;;;7.22;4.18;;;;;;;;;;5083751;28;20028;-77
2022/11/22 05:35:34;;;;;;;11.18;4.13;;;;;;;;;;5064626;28;20074;-77
2022/11/22 05:38:00;;;;;;;6.28;4.18;;;;;;;;;;5085992;28;20111;-77
2022/11/22 05:40:26;;;;;;;5.35;4.68;;;;;;;;;;5068917;28;20119;-77
2022/11/22 05:42:52;;;;;;;8.77;4.20;;;;;;;;;;5068453;28;20111;-76
2022/11/22 05:45:19;;;;;;;7.43;4.38;;;;;;;;;;5072892;28;20082;-76
2022/11/22 05:47:45;;;;;;;10.40;4.40;;;;;;;;;;5070647;28;20443;-78
2022/11/22 05:50:11;;;;;;;8.68;4.35;;;;;;;;;;5086740;28;20524;-77
2022/11/22 05:52:37;;;;;;;9.50;4.50;;;;;;;;;;5086708;28;20054;-77
2022/11/22 05:55:03;;;;;;;4.97;4.07;;;;;;;;;;5085617;28;20061;-77
2022/11/22 05:57:31;;;;;;;5.20;3.75;;;;;;;;;;5082405;28;20035;-76
2022/11/22 05:59:57;;;;;;;11.20;4.45;;;;;;;;;;5085741;28;20394;-77
2022/11/22 06:02:23;;;;;;;4.22;3.83;;;;;;;;;;5094950;28;20035;-77
2022/11/22 06:04:49;;;;;;;7.53;3.95;;;;;;;;;;5092376;28;20020;-78
2022/11/22 06:07:15;;;;;;;7.45;4.40;;;;;;;;;;5098008;28;20052;-78
2022/11/22 06:09:41;;;;;;;6.43;4.15;;;;;;;;;;5092441;28;20032;-76
2022/11/22 06:12:08;;;;;;;6.97;4.22;;;;;;;;;;5073211;28;20497;-77
2022/11/22 06:14:34;;;;;;;9.70;6.45;;;;;;;;;;5088061;28;20023;-76
2022/11/22 06:17:00;;;;;;;11.85;6.80;;;;;;;;;;5096826;28;20107;-78
2022/11/22 06:19:26;;;;;;;8.63;5.68;;;;;;;;;;5097361;28;20020;-79
2022/11/22 06:21:53;;;;;;;8.05;4.78;;;;;;;;;;5069405;28;20107;-76
2022/11/22 06:24:19;;;;;;;8.15;4.65;;;;;;;;;;5086152;28;20474;-77
2022/11/22 06:26:48;;;;;;;6.43;4.05;;;;;;;;;;5078069;28;20036;-77
2022/11/22 06:29:17;;;;;;;5.85;4.00;;;;;;;;;;5084731;28;20135;-77
2022/11/22 06:31:45;;;;;;;4.28;3.88;;;;;;;;;;5082036;28;20116;-77
2022/11/22 06:34:12;;;;;;;5.15;3.88;;;;;;;;;;5056928;28;20436;-76
2022/11/22 06:36:38;;;;;;;6.57;4.00;;;;;;;;;;5090423;28;20046;-76
2022/11/22 06:39:05;;;;;;;7.40;4.32;;;;;;;;;;5089867;28;20013;-76
2022/11/22 06:41:32;;;;;;;7.20;4.88;;;;;;;;;;5072145;28;20228;-76
2022/11/22 06:43:58;;;;;;;7.55;4.60;;;;;;;;;;5089410;28;20024;-76
2022/11/22 06:46:25;;;;;;;5.35;4.10;;;;;;;;;;5089455;28;20108;-77
2022/11/22 06:48:51;;;;;;;4.90;4.00;;;;;;;;;;5090723;28;20067;-76
2022/11/22 06:51:21;;;;;;;5.75;3.65;;;;;;;;;;5091515;28;20378;-76
2022/11/22 06:53:48;;;;;;;7.15;4.32;;;;;;;;;;5090857;28;20501;-76
2022/11/22 06:56:18;;;;;;;5.82;4.20;;;;;;;;;;5088729;28;20047;-76
2022/11/22 06:58:45;;;;;;;10.20;4.85;;;;;;;;;;5088104;28;20028;-77
2022/11/22 07:01:12;;;;;;;8.00;4.45;;;;;;;;;;5069263;28;20039;-77
2022/11/22 07:03:39;;;;;;;9.07;4.68;;;;;;;;;;5086695;28;20509;-77
2022/11/22 07:06:05;;;;;;;11.52;4.57;;;;;;;;;;5088175;28;20505;-76
2022/11/22 07:08:32;;;;;;;8.13;4.78;;;;;;;;;;5085502;28;20032;-76
2022/11/22 07:11:02;;;;;;;12.95;5.22;;;;;;;;;;5083082;28;20110;-76
2022/11/22 07:13:28;;;;;;;12.32;4.25;;;;;;;;;;5081761;28;20050;-76
2022/11/22 07:15:58;;;;;;;32.13;6.45;;;;;;;;;;5089891;28;20470;-76
2022/11/22 07:18:24;;;;;;;21.63;5.00;;;;;;;;;;5082510;28;21196;-76
2022/11/22 07:20:51;;;;;;;23.58;4.50;;;;;;;;;;5087676;28;20084;-76
2022/11/22 07:23:17;;;;;;;23.60;4.50;;;;;;;;;;5072209;28;20020;-76
2022/11/22 07:25:46;;;;;;;23.38;5.60;;;;;;;;;;5091141;28;20026;-76
2022/11/22 07:28:13;;;;;;;12.45;4.35;;;;;;;;;;5092465;28;20393;-76
2022/11/22 07:30:40;;;;;;;19.20;4.50;;;;;;;;;;5082971;28;20036;-76
2022/11/22 07:33:06;;;;;;;24.15;4.90;;;;;;;;;;5072162;28;20028;-77
2022/11/22 07:35:32;;;;;;;11.85;4.78;;;;;;;;;;5072358;28;20367;-76
2022/11/22 07:37:58;;;;;;;35.35;6.53;;;;;;;;;;5087191;28;20047;-76
2022/11/22 07:40:24;;;;;;;26.40;6.32;;;;;;;;;;5093170;28;20529;-77
2022/11/22 07:42:50;;;;;;;35.83;5.57;;;;;;;;;;5083543;28;20351;-77
2022/11/22 07:45:16;;;;;;;37.00;8.23;;;;;;;;;;5083973;28;20028;-77
2022/11/22 07:47:42;;;;;;;27.30;6.15;;;;;;;;;;5083314;28;20024;-76
2022/11/22 07:50:08;;;;;;;11.48;4.55;;;;;;;;;;5088581;28;20028;-77
2022/11/22 07:52:35;;;;;;;15.65;5.95;;;;;;;;;;5088082;28;20032;-76
2022/11/22 07:55:01;;;;;;;22.70;5.82;;;;;;;;;;5073123;28;20088;-77
2022/11/22 07:57:27;;;;;;;28.00;6.32;;;;;;;;;;5091346;28;20066;-77
2022/11/22 07:59:53;;;;;;;37.45;5.97;;;;;;;;;;5087458;28;20040;-77
2022/11/22 08:02:19;;;;;;;48.15;6.30;;;;;;;;;;5089620;28;20407;-76
2022/11/22 08:04:46;;;;;;;31.63;6.90;;;;;;;;;;5088384;28;20024;-77
2022/11/22 08:07:12;;;;;;;18.92;5.68;;;;;;;;;;5089039;28;20210;-76
2022/11/22 08:09:38;;;;;;;20.20;5.40;;;;;;;;;;5089578;28;20024;-77
2022/11/22 08:12:04;;;;;;;21.27;6.18;;;;;;;;;;5086612;28;20043;-76
2022/11/22 08:14:30;;;;;;;13.93;5.65;;;;;;;;;;5090062;28;20598;-76
2022/11/22 08:16:56;;;;;;;26.38;8.18;;;;;;;;;;5092437;28;20028;-76
2022/11/22 08:19:22;;;;;;;16.55;6.50;;;;;;;;;;5069042;28;20035;-77
2022/11/22 08:21:48;;;;;;;16.38;5.78;;;;;;;;;;5082785;28;20402;-77
2022/11/22 08:24:15;;;;;;;8.90;5.30;;;;;;;;;;5085797;28;20137;-76
2022/11/22 08:26:42;;;;;;;12.95;5.93;;;;;;;;;;5087496;28;20039;-77
2022/11/22 08:29:09;;;;;;;13.70;6.57;;;;;;;;;;5088326;28;20039;-77
2022/11/22 08:31:36;;;;;;;12.23;6.05;;;;;;;;;;5071297;28;20050;-77
2022/11/22 08:34:02;;;;;;;13.98;6.75;;;;;;;;;;5086503;28;20550;-76
2022/11/22 08:36:28;;;;;;;19.23;5.93;;;;;;;;;;5068961;28;20046;-77
2022/11/22 08:38:54;;;;;;;26.25;7.80;;;;;;;;;;5079342;28;20510;-77
2022/11/22 08:41:20;;;;;;;14.68;6.45;;;;;;;;;;5081671;28;20024;-77
2022/11/22 08:43:49;;;;;;;12.60;6.53;;;;;;;;;;5074517;28;20024;-76
2022/11/22 08:46:15;;;;;;;36.15;7.32;;;;;;;;;;5091583;28;20069;-77
2022/11/22 08:48:42;;;;;;;30.92;7.72;;;;;;;;;;5091997;28;20079;-76
2022/11/22 08:51:09;;;;;;;18.65;7.72;;;;;;;;;;5089798;28;20426;-76
2022/11/22 08:53:42;;;;;;;33.78;7.32;;;;;;;;;;5089798;28;20475;-76
2022/11/22 08:56:11;;;;;;;22.55;7.18;;;;;;;;;;5084421;28;20040;-77
2022/11/22 08:58:38;;;;;;;24.33;7.75;;;;;;;;;;5084609;28;20386;-76
2022/11/22 09:01:12;;;;;;;28.45;7.20;;;;;;;;;;5084151;28;20024;-77
2022/11/22 09:03:39;;;;;;;26.50;6.55;;;;;;;;;;5067934;28;20508;-76
2022/11/22 09:06:09;;;;;;;35.97;6.65;;;;;;;;;;5087021;28;20497;-77
2022/11/22 09:08:36;;;;;;;22.90;6.07;;;;;;;;;;5082629;28;20021;-77
2022/11/22 09:11:07;;;;;;;32.55;8.18;;;;;;;;;;5088681;28;20040;-77
2022/11/22 09:13:33;;;;;;;18.63;6.38;;;;;;;;;;5088158;28;20039;-77
2022/11/22 09:16:02;;;;;;;24.13;6.30;;;;;;;;;;5090257;28;20111;-77
2022/11/22 09:18:29;;;;;;;11.57;5.57;;;;;;;;;;5086228;28;20478;-77
2022/11/22 09:20:59;;;;;;;17.75;6.55;;;;;;;;;;5070102;28;20028;-77
2022/11/22 09:23:25;;;;;;;46.13;9.38;;;;;;;;;;5089924;28;20481;-78
2022/11/22 09:26:01;;;;;;;27.25;6.15;;;;;;;;;;5084182;28;20034;-76
2022/11/22 09:28:27;;;;;;;31.40;6.45;;;;;;;;;;5089714;28;20033;-77
2022/11/22 09:31:04;;;;;;;17.15;7.15;;;;;;;;;;5086411;28;20016;-77
2022/11/22 09:33:30;;;;;;;28.08;7.18;;;;;;;;;;5087500;28;20028;-76
2022/11/22 09:36:05;;;;;;;26.92;6.82;;;;;;;;;;5071251;28;20024;-76
2022/11/22 09:38:31;;;;;;;17.30;6.60;;;;;;;;;;5085578;28;20029;-76
2022/11/22 09:40:58;;;;;;;42.83;9.27;;;;;;;;;;5089369;28;20024;-77
2022/11/22 09:43:27;;;;;;;19.38;6.43;;;;;;;;;;5087297;28;20093;-77
2022/11/22 09:45:53;;;;;;;27.45;8.73;;;;;;;;;;5072940;28;20448;-77
2022/11/22 09:48:35;;;;;;;17.00;6.65;;;;;;;;;;5087798;28;20089;-78
2022/11/22 09:51:14;;;;;;;17.73;8.48;;;;;;;;;;5071350;28;20024;-77
2022/11/22 09:53:52;;;;;;;22.13;8.60;;;;;;;;;;5086323;28;20104;-76
2022/11/22 09:56:21;;;;;;;15.85;8.88;;;;;;;;;;5069570;28;20069;-76
2022/11/22 09:58:50;;;;;;;13.82;7.45;;;;;;;;;;5065625;28;20028;-77
2022/11/22 10:01:16;;;;;;;15.25;8.35;;;;;;;;;;5086087;28;20024;-77
2022/11/22 10:03:48;;;;;;;20.98;9.35;;;;;;;;;;5090425;28;20028;-76
2022/11/22 10:06:34;;;;;;;18.25;9.63;;;;;;;;;;5069721;28;20051;-77
2022/11/22 10:09:00;;;;;;;18.25;8.10;;;;;;;;;;5079669;28;20032;-76
2022/11/22 10:11:33;;;;;;;17.65;7.53;;;;;;;;;;5087801;28;20024;-76
2022/11/22 10:14:03;;;;;;;17.08;8.23;;;;;;;;;;5091420;28;20472;-77
2022/11/22 10:16:34;;;;;;;19.38;9.27;;;;;;;;;;5089493;28;20051;-76
2022/11/22 10:19:02;;;;;;;12.70;6.72;;;;;;;;;;5071108;28;20033;-76
2022/11/22 10:21:28;;;;;;;11.25;7.20;;;;;;;;;;5090833;28;20095;-77
2022/11/22 10:23:54;;;;;;;12.43;7.35;;;;;;;;;;5089630;28;20521;-76
2022/11/22 10:26:20;;;;;;;16.45;9.68;;;;;;;;;;5089089;28;20024;-78
2022/11/22 10:28:51;;;;;;;15.93;6.90;;;;;;;;;;5074269;28;20020;-77
2022/11/22 10:31:19;;;;;;;12.48;7.82;;;;;;;;;;5084758;28;20261;-77
2022/11/22 10:33:48;;;;;;;15.50;7.22;;;;;;;;;;5091773;28;20084;-76
2022/11/22 10:36:14;;;;;;;13.57;7.00;;;;;;;;;;5049430;28;1246714;-77
2022/11/22 10:39:03;;;;;;;12.57;6.40;;;;;;;;;;5087225;28;20031;-77
2022/11/22 10:41:54;;;;;;;15.73;7.63;;;;;;;;;;5049170;28;20142;-76
2022/11/22 10:44:25;;;;;;;17.70;8.65;;;;;;;;;;5071173;28;20035;-77
2022/11/22 10:46:56;;;;;;;19.60;9.73;;;;;;;;;;5087149;28;20016;-77
2022/11/22 10:49:28;;;;;;;41.50;11.15;;;;;;;;;;5090985;28;20490;-77
2022/11/22 10:52:13;;;;;;;23.00;9.38;;;;;;;;;;5092162;28;20016;-77
2022/11/22 10:54:42;;;;;;;23.88;10.75;;;;;;;;;;5092123;28;20017;-77
2022/11/22 10:57:21;;;;;;;21.65;10.20;;;;;;;;;;5091227;28;20024;-77
2022/11/22 11:00:14;;;;;;;20.58;10.07;;;;;;;;;;5090946;28;20030;-76
2022/11/22 11:02:40;;;;;;;18.80;8.80;;;;;;;;;;5086881;28;20024;-76
2022/11/22 11:05:10;;;;;;;16.33;9.32;;;;;;;;;;5086016;28;20110;-77
2022/11/22 11:07:38;;;;;;;21.20;13.30;;;;;;;;;;5089585;28;20024;-77
2022/11/22 11:10:05;;;;;;;23.42;14.50;;;;;;;;;;5090346;28;20032;-76
2022/11/22 11:12:31;;;;;;;22.75;12.93;;;;;;;;;;5092309;28;20024;-76
2022/11/22 11:15:04;;;;;;;25.95;14.05;;;;;;;;;;5089219;28;20099;-77
2022/11/22 11:17:33;;;;;;;20.05;12.40;;;;;;;;;;5090354;28;20085;-77
2022/11/22 11:20:01;;;;;;;17.02;9.27;;;;;;;;;;5090903;28;20344;-77
2022/11/22 11:22:30;;;;;;;18.77;9.27;;;;;;;;;;5090855;28;20099;-77
2022/11/22 11:24:56;;;;;;;16.67;8.55;;;;;;;;;;5093636;28;20051;-77
2022/11/22 11:27:30;;;;;;;15.57;7.57;;;;;;;;;;5079332;28;20031;-78
2022/11/22 11:30:03;;;;;;;18.02;8.27;;;;;;;;;;5095617;28;20032;-76
2022/11/22 11:32:29;;;;;;;23.88;8.73;;;;;;;;;;5093860;28;20034;-77
2022/11/22 11:35:01;;;;;;;17.70;8.43;;;;;;;;;;5086605;28;20027;-78
2022/11/22 11:37:32;;;;;;;15.77;9.27;;;;;;;;;;5102532;28;20051;-77
2022/11/22 11:39:58;;;;;;;12.10;7.43;;;;;;;;;;5095192;28;20016;-76
2022/11/22 11:42:31;;;;;;;16.08;8.00;;;;;;;;;;5100058;28;20041;-76
2022/11/22 11:45:30;;;;;;;15.27;7.13;;;;;;;;;;5092265;28;20111;-77
2022/11/22 11:47:56;;;;;;;15.55;6.35;;;;;;;;;;5033865;28;20031;-76
2022/11/22 11:50:24;;;;;;;13.00;8.45;;;;;;;;;;5092477;28;20035;-78
2022/11/22 11:52:53;;;;;;;13.85;7.05;;;;;;;;;;5092259;28;20027;-78
2022/11/22 11:55:19;;;;;;;16.42;9.70;;;;;;;;;;5088734;28;20048;-78
2022/11/22 11:57:46;;;;;;;20.48;10.30;;;;;;;;;;5083213;28;20034;-76
2022/11/22 12:00:19;;;;;;;19.63;9.73;;;;;;;;;;5083350;28;20568;-76
2022/11/22 12:02:46;;;;;;;17.75;8.88;;;;;;;;;;5084569;28;20028;-77
2022/11/22 12:05:12;;;;;;;14.88;8.02;;;;;;;;;;5089046;28;20066;-77
2022/11/22 12:07:43;;;;;;;15.65;8.48;;;;;;;;;;5086519;28;20371;-77
2022/11/22 12:10:28;;;;;;;23.92;11.82;;;;;;;;;;5085613;28;20111;-77
2022/11/22 12:12:59;;;;;;;18.70;9.52;;;;;;;;;;5084476;28;20077;-76
2022/11/22 12:15:44;;;;;;;17.83;8.63;;;;;;;;;;5081295;28;20468;-77
2022/11/22 12:18:30;;;;;;;16.02;8.65;;;;;;;;;;5085228;28;20031;-76
2022/11/22 12:21:16;;;;;;;26.15;11.57;;;;;;;;;;5068375;28;20143;-77
2022/11/22 12:23:42;;;;;;;23.77;10.18;;;;;;;;;;5083966;28;20099;-76
2022/11/22 12:26:08;;;;;;;30.10;9.85;;;;;;;;;;5089357;28;20098;-78
2022/11/22 12:28:34;;;;;;;13.68;8.20;;;;;;;;;;5093360;28;20553;-77
2022/11/22 12:31:01;;;;;;;16.25;8.82;;;;;;;;;;5089056;28;20394;-76
2022/11/22 12:33:34;;;;;;;15.23;9.20;;;;;;;;;;5084572;28;20100;-78
2022/11/22 12:36:03;;;;;;;20.73;12.05;;;;;;;;;;5084672;28;20482;-76
2022/11/22 12:38:33;;;;;;;15.93;8.82;;;;;;;;;;5067349;28;20028;-77
2022/11/22 12:41:02;;;;;;;20.95;9.90;;;;;;;;;;5081923;28;20027;-76
2022/11/22 12:43:43;;;;;;;15.27;9.05;;;;;;;;;;5085002;28;20020;-77
2022/11/22 12:46:13;;;;;;;21.00;10.32;;;;;;;;;;5084737;28;20528;-76
2022/11/22 12:48:56;;;;;;;18.40;10.90;;;;;;;;;;5084580;28;20032;-78
2022/11/22 12:51:41;;;;;;;20.70;10.75;;;;;;;;;;5080998;28;20053;-77
2022/11/22 12:54:12;;;;;;;15.70;9.65;;;;;;;;;;5069204;28;20024;-77
2022/11/22 12:56:48;;;;;;;19.15;10.38;;;;;;;;;;5091652;28;20032;-76
2022/11/22 12:59:23;;;;;;;18.27;9.13;;;;;;;;;;5085985;28;20390;-77
2022/11/22 13:01:55;;;;;;;16.27;9.00;;;;;;;;;;5068731;28;20051;-77
2022/11/22 13:04:27;;;;;;;16.30;9.10;;;;;;;;;;5066502;28;20084;-78
2022/11/22 13:06:53;;;;;;;20.92;10.90;;;;;;;;;;5086376;28;20027;-78
2022/11/22 13:09:28;;;;;;;20.13;11.77;;;;;;;;;;5085185;28;20032;-78
2022/11/22 13:12:05;;;;;;;19.95;10.30;;;;;;;;;;5089204;28;20031;-77
2022/11/22 13:14:34;;;;;;;21.10;10.55;;;;;;;;;;5091266;28;20028;-76
2022/11/22 13:17:05;;;;;;;40.72;16.02;;;;;;;;;;5083118;28;20039;-77
2022/11/22 13:19:33;;;;;;;35.13;15.85;;;;;;;;;;5079894;28;20428;-76
2022/11/22 13:22:34;;;;;;;25.23;11.38;;;;;;;;;;5082999;28;20028;-77
2022/11/22 13:25:21;;;;;;;25.35;12.27;;;;;;;;;;4967539;28;20066;-77
2022/11/22 13:27:49;;;;;;;20.70;11.20;;;;;;;;;;5076274;28;20067;-77
2022/11/22 13:30:21;;;;;;;23.00;11.98;;;;;;;;;;5088185;28;20024;-77
2022/11/22 13:32:50;;;;;;;22.88;12.55;;;;;;;;;;5089280;28;20099;-77
2022/11/22 13:35:16;;;;;;;23.20;13.02;;;;;;;;;;5084316;28;20028;-78
2022/11/22 13:37:43;;;;;;;20.60;11.60;;;;;;;;;;5079450;28;20118;-77
2022/11/22 13:40:15;;;;;;;23.42;11.60;;;;;;;;;;5084954;28;20082;-77
2022/11/22 13:42:41;;;;;;;21.63;12.13;;;;;;;;;;5090100;28;20038;-76
2022/11/22 13:45:28;;;;;;;26.85;12.10;;;;;;;;;;5090530;28;20546;-76
2022/11/22 13:47:54;;;;;;;23.45;13.05;;;;;;;;;;5084911;28;20482;-76
2022/11/22 13:50:35;;;;;;;23.67;11.35;;;;;;;;;;5080899;28;20028;-77
2022/11/22 13:53:20;;;;;;;23.58;11.50;;;;;;;;;;5084368;28;20116;-77
2022/11/22 13:55:47;;;;;;;27.00;11.38;;;;;;;;;;5077387;28;20028;-76
2022/11/22 13:58:25;;;;;;;23.45;13.07;;;;;;;;;;5086563;28;20341;-77
2022/11/22 14:00:55;;;;;;;22.85;12.20;;;;;;;;;;5088090;28;20039;-77
2022/11/22 14:03:24;;;;;;;23.02;11.77;;;;;;;;;;5092132;28;20020;-77
2022/11/22 14:05:51;;;;;;;20.65;10.82;;;;;;;;;;5068026;28;20078;-77
2022/11/22 14:08:32;;;;;;;24.15;10.30;;;;;;;;;;5070994;28;20854;-77
2022/11/22 14:11:04;;;;;;;22.83;12.18;;;;;;;;;;5068410;28;20024;-77
2022/11/22 14:13:51;;;;;;;;;;;;;;;;;;;;;
2022/11/22 14:16:17;;;;;;;25.20;11.20;;;;;;;;;;5093527;28;20514;-77
2022/11/22 14:18:46;;;;;;;20.70;12.07;;;;;;;;;;5088699;28;20452;-76
2022/11/22 14:21:13;;;;;;;28.80;13.48;;;;;;;;;;5074043;28;20032;-77
2022/11/22 14:23:57;;;;;;;24.83;11.48;;;;;;;;;;5090794;28;20012;-77
2022/11/22 14:26:32;;;;;;;24.75;10.95;;;;;;;;;;5082884;28;20077;-77
2022/11/22 14:28:59;;;;;;;22.02;10.77;;;;;;;;;;5074047;28;20547;-78
2022/11/22 14:31:25;;;;;;;23.38;11.23;;;;;;;;;;5073139;28;20393;-77
2022/11/22 14:34:10;;;;;;;24.20;11.15;;;;;;;;;;5092664;28;20024;-77
2022/11/22 14:36:36;;;;;;;23.05;11.80;;;;;;;;;;5091180;28;20379;-77
2022/11/22 14:39:22;;;;;;;24.58;12.27;;;;;;;;;;5093769;28;20028;-77
2022/11/22 14:41:48;;;;;;;;;;;;;;;;;;5092961;28;20027;-77
2022/11/22 14:44:14;;;;;;;22.33;12.90;;;;;;;;;;5090827;28;20319;-78
2022/11/22 14:46:44;;;;;;;26.40;14.15;;;;;;;;;;5090164;28;20107;-77
2022/11/22 14:49:15;;;;;;;19.98;11.50;;;;;;;;;;5090723;28;20078;-76
2022/11/22 14:51:41;;;;;;;23.60;13.50;;;;;;;;;;5090179;28;20527;-78
2022/11/22 14:54:19;;;;;;;24.27;13.32;;;;;;;;;;5066533;28;20100;-77
2022/11/22 14:56:46;;;;;;;29.30;16.70;;;;;;;;;;5087280;28;20051;-77